Time;durP1;ratioP1;P1;durP2;ratioP2;P2;SDS_P1;SDS_P2;PMS_P1;PMS_P2;Temp;Humidity;BMP_temperature;BMP_pressure;BME280_temperature;BME280_humidity;BME280_pressure;Samples;Min_cycle;Max_cycle;Signal;HPM_P1;HPM_P2
2022/10/19 00:02:03;;;;;;;8.85;3.75;;;11.60;99.90;;;;;;4842551;29;19949;-75
2022/10/19 00:04:29;;;;;;;;;;;11.70;99.90;;;;;;4858789;29;20048;-74
2022/10/19 00:06:55;;;;;;;9.90;4.15;;;11.70;99.90;;;;;;4843021;29;20393;-75
2022/10/19 00:09:21;;;;;;;;;;;11.70;99.90;;;;;;4843213;29;20096;-75
2022/10/19 00:11:49;;;;;;;13.57;4.55;;;11.80;99.90;;;;;;4859239;29;20026;-76
2022/10/19 00:14:18;;;;;;;19.17;3.90;;;11.80;99.90;;;;;;4858537;29;20105;-75
2022/10/19 00:16:46;;;;;;;9.95;3.75;;;11.80;99.90;;;;;;4861615;29;20113;-75
2022/10/19 00:19:17;;;;;;;6.13;3.17;;;11.90;99.90;;;;;;4846364;29;20086;-76
2022/10/19 00:21:42;;;;;;;6.50;3.08;;;11.90;99.90;;;;;;4846174;29;20029;-75
2022/10/19 00:24:08;;;;;;;;;;;11.90;99.90;;;;;;4863465;29;20049;-76
2022/10/19 00:26:34;;;;;;;12.00;4.28;;;11.90;99.90;;;;;;4846626;29;19919;-76
2022/10/19 00:28:59;;;;;;;;;;;11.90;99.90;;;;;;4847134;29;20033;-76
2022/10/19 00:31:25;;;;;;;7.90;4.35;;;11.90;99.90;;;;;;4863406;29;19908;-76
2022/10/19 00:33:51;;;;;;;;;;;11.90;99.90;;;;;;4863667;29;20033;-75
2022/10/19 00:36:38;;;;;;;10.43;4.65;;;12.10;99.90;;;;;;4845800;29;20551;-75
2022/10/19 00:39:06;;;;;;;12.98;5.15;;;12.10;99.90;;;;;;4862961;29;20098;-75
2022/10/19 00:41:33;;;;;;;10.13;4.85;;;12.10;99.90;;;;;;4862068;29;20029;-76
2022/10/19 00:44:10;;;;;;;14.40;5.57;;;12.10;99.90;;;;;;4861976;29;20044;-76
2022/10/19 00:46:38;;;;;;;13.80;5.65;;;12.20;99.90;;;;;;4845508;29;20026;-75
2022/10/19 00:49:09;;;;;;;12.15;5.47;;;12.30;99.90;;;;;;4845885;29;20065;-75
2022/10/19 00:51:38;;;;;;;13.07;5.10;;;12.30;99.90;;;;;;4862439;29;20033;-76
2022/10/19 00:54:05;;;;;;;12.80;4.50;;;12.50;99.90;;;;;;4846018;29;20035;-76
2022/10/19 00:56:32;;;;;;;12.95;4.38;;;12.50;99.90;;;;;;4845504;29;20034;-75
2022/10/19 00:58:58;;;;;;;9.75;4.03;;;12.50;99.90;;;;;;4845815;29;20044;-76
2022/10/19 01:01:25;;;;;;;;;;;12.60;99.90;;;;;;4845361;29;20038;-75
2022/10/19 01:03:51;;;;;;;15.10;4.70;;;12.50;99.90;;;;;;4846014;29;19979;-75
2022/10/19 01:06:18;;;;;;;7.57;4.00;;;12.50;99.90;;;;;;4845641;29;20044;-75
2022/10/19 01:08:45;;;;;;;10.80;3.97;;;12.40;99.90;;;;;;4846225;29;20038;-76
2022/10/19 01:11:47;;;;;;;7.30;4.03;;;12.40;99.90;;;;;;4862316;29;20710;-75
2022/10/19 01:14:24;;;;;;;9.00;4.32;;;12.40;99.90;;;;;;4862637;29;20054;-75
2022/10/19 01:17:17;;;;;;;11.30;3.65;;;12.30;99.90;;;;;;4863115;29;20112;-75
2022/10/19 01:20:20;;;;;;;7.63;3.75;;;12.30;99.90;;;;;;4862307;29;20036;-75
2022/10/19 01:23:13;;;;;;;9.23;4.45;;;12.30;99.90;;;;;;4846547;29;20106;-75
2022/10/19 01:25:47;;;;;;;8.25;4.95;;;12.30;99.90;;;;;;4861595;29;20070;-76
2022/10/19 01:28:39;;;;;;;8.57;3.72;;;12.30;99.90;;;;;;4844411;29;20033;-75
2022/10/19 01:31:30;;;;;;;8.40;3.97;;;12.30;99.90;;;;;;4860834;29;20177;-74
2022/10/19 01:34:28;;;;;;;20.08;4.43;;;12.40;99.90;;;;;;4844206;29;20037;-74
2022/10/19 01:37:16;;;;;;;8.63;4.30;;;12.50;99.90;;;;;;4861239;29;20030;-75
2022/10/19 01:39:58;;;;;;;8.75;3.90;;;12.60;99.90;;;;;;4861400;29;20037;-75
2022/10/19 01:42:37;;;;;;;12.05;4.05;;;12.60;99.90;;;;;;4843688;29;20025;-75
2022/10/19 01:45:06;;;;;;;7.18;3.90;;;12.70;99.90;;;;;;4861909;29;20034;-76
2022/10/19 01:48:00;;;;;;;13.65;3.92;;;12.60;99.90;;;;;;4860547;29;20547;-75
2022/10/19 01:50:51;;;;;;;9.77;4.00;;;12.70;99.90;;;;;;4842474;29;20045;-75
2022/10/19 01:53:19;;;;;;;6.88;3.53;;;12.70;99.90;;;;;;4861322;29;20761;-75
2022/10/19 01:55:48;;;;;;;14.93;4.57;;;12.70;99.90;;;;;;4861162;29;20045;-75
2022/10/19 01:58:20;;;;;;;13.05;4.53;;;12.70;99.90;;;;;;4844024;29;20457;-75
2022/10/19 02:00:47;;;;;;;9.43;3.88;;;12.80;99.90;;;;;;4861502;29;20037;-75
2022/10/19 02:03:13;;;;;;;7.35;3.88;;;12.80;99.90;;;;;;4860753;29;20041;-74
2022/10/19 02:05:41;;;;;;;5.60;3.40;;;12.80;99.90;;;;;;4843463;29;20034;-75
2022/10/19 02:08:15;;;;;;;10.82;4.45;;;12.80;99.90;;;;;;4860926;29;20096;-75
2022/10/19 02:10:43;;;;;;;9.98;4.10;;;12.80;99.90;;;;;;4844359;29;20049;-75
2022/10/19 02:13:11;;;;;;;11.70;4.88;;;12.80;99.90;;;;;;4860352;29;20037;-74
2022/10/19 02:15:40;;;;;;;13.63;4.35;;;12.90;99.90;;;;;;4843974;29;20132;-74
2022/10/19 02:18:07;;;;;;;8.00;5.05;;;12.90;99.90;;;;;;4861301;29;20510;-74
2022/10/19 02:20:35;;;;;;;10.65;4.88;;;12.90;99.90;;;;;;4861571;29;20029;-76
2022/10/19 02:23:05;;;;;;;9.93;4.78;;;12.90;99.90;;;;;;4861674;29;20671;-75
2022/10/19 02:25:32;;;;;;;8.73;4.05;;;13.00;99.90;;;;;;4861765;29;20109;-75
2022/10/19 02:27:58;;;;;;;12.43;4.80;;;12.90;99.90;;;;;;4860915;29;20033;-76
2022/10/19 02:30:24;;;;;;;12.68;4.47;;;13.00;99.90;;;;;;4843751;29;20572;-75
2022/10/19 02:32:49;;;;;;;;;;;13.00;99.90;;;;;;4845019;29;20074;-76
2022/10/19 02:35:15;;;;;;;23.52;5.32;;;13.00;99.90;;;;;;4844065;29;20274;-76
2022/10/19 02:37:41;;;;;;;;;;;13.10;99.90;;;;;;4844669;29;20055;-75
2022/10/19 02:40:08;;;;;;;8.77;4.20;;;13.00;99.90;;;;;;4860037;29;19912;-76
2022/10/19 02:43:01;;;;;;;6.97;3.80;;;13.00;99.90;;;;;;4843674;29;20174;-75
2022/10/19 02:45:38;;;;;;;8.98;4.25;;;13.00;99.90;;;;;;4860429;29;20111;-75
2022/10/19 02:48:10;;;;;;;;;;;12.90;99.90;;;;;;4844092;29;20167;-75
2022/10/19 02:50:35;;;;;;;11.38;3.47;;;12.90;99.90;;;;;;4843949;29;19935;-75
2022/10/19 02:53:01;;;;;;;;;;;12.90;99.90;;;;;;4862300;29;20033;-76
2022/10/19 02:55:29;;;;;;;7.07;4.03;;;12.90;99.90;;;;;;4845204;29;19919;-76
2022/10/19 02:57:54;;;;;;;14.13;5.15;;;12.80;99.90;;;;;;4861050;29;20189;-75
2022/10/19 03:00:20;;;;;;;;;;;12.80;99.90;;;;;;4860783;29;20832;-75
2022/10/19 03:02:47;;;;;;;12.32;4.57;;;12.80;99.90;;;;;;4859716;29;19926;-75
2022/10/19 03:05:12;;;;;;;9.85;5.30;;;12.80;99.90;;;;;;4859740;29;20045;-75
2022/10/19 03:07:38;;;;;;;;;;;12.70;99.90;;;;;;4843315;29;20030;-75
2022/10/19 03:10:03;;;;;;;16.15;5.22;;;12.80;99.90;;;;;;4843016;29;19916;-75
2022/10/19 03:12:29;;;;;;;;;;;12.70;99.90;;;;;;4843395;29;20086;-76
2022/10/19 03:14:55;;;;;;;14.80;5.80;;;12.70;99.90;;;;;;4859689;29;20450;-76
2022/10/19 03:17:20;;;;;;;;;;;12.70;99.90;;;;;;4859840;29;20044;-75
2022/10/19 03:19:46;;;;;;;11.82;4.45;;;12.70;99.90;;;;;;4842838;29;19908;-75
2022/10/19 03:22:12;;;;;;;;;;;12.70;99.90;;;;;;4860346;29;20071;-76
2022/10/19 03:24:38;;;;;;;8.23;4.88;;;12.70;99.90;;;;;;4859662;29;19998;-75
2022/10/19 03:27:03;;;;;;;;;;;12.70;99.90;;;;;;4843397;29;20497;-76
2022/10/19 03:29:29;;;;;;;12.77;5.72;;;12.70;99.90;;;;;;4842491;29;19932;-76
2022/10/19 03:31:54;;;;;;;;;;;12.70;99.90;;;;;;4843521;29;20488;-76
2022/10/19 03:34:20;;;;;;;11.15;5.15;;;12.80;99.90;;;;;;4859237;29;20006;-75
2022/10/19 03:36:45;;;;;;;;;;;12.70;99.90;;;;;;4859172;29;20124;-75
2022/10/19 03:39:13;;;;;;;7.70;4.15;;;12.80;99.90;;;;;;4857838;29;19937;-75
2022/10/19 03:41:39;;;;;;;8.82;3.92;;;12.80;99.90;;;;;;4842465;29;20064;-76
2022/10/19 03:44:06;;;;;;;;;;;12.90;99.90;;;;;;4859669;29;20049;-76
2022/10/19 03:46:32;;;;;;;7.78;4.15;;;12.90;99.90;;;;;;4842711;29;19937;-75
2022/10/19 03:48:58;;;;;;;9.50;4.43;;;12.90;99.90;;;;;;4858917;29;20101;-75
2022/10/19 03:51:25;;;;;;;;;;;12.90;99.90;;;;;;4843175;29;20049;-75
2022/10/19 03:53:55;;;;;;;6.68;4.47;;;13.00;99.90;;;;;;4842990;29;20018;-76
2022/10/19 03:56:23;;;;;;;9.73;4.82;;;13.00;99.90;;;;;;4859325;29;20041;-75
2022/10/19 03:58:50;;;;;;;10.00;4.85;;;13.00;99.90;;;;;;4843088;29;20065;-75
2022/10/19 04:01:24;;;;;;;11.15;5.40;;;13.00;99.90;;;;;;4860605;29;20057;-76
2022/10/19 04:03:59;;;;;;;10.48;5.32;;;13.00;99.90;;;;;;4842945;29;20526;-75
2022/10/19 04:06:27;;;;;;;16.50;6.40;;;12.90;99.90;;;;;;4859553;29;20711;-75
2022/10/19 04:08:53;;;;;;;11.30;5.82;;;12.90;99.90;;;;;;4859206;29;20062;-75
2022/10/19 04:11:23;;;;;;;;;;;12.80;99.90;;;;;;4859643;29;20484;-75
2022/10/19 04:13:50;;;;;;;9.68;5.10;;;12.90;99.90;;;;;;4841618;29;19916;-75
2022/10/19 04:16:16;;;;;;;9.82;5.82;;;12.80;99.90;;;;;;4843189;29;20026;-75
2022/10/19 04:18:42;;;;;;;14.57;7.20;;;12.80;99.90;;;;;;4843253;29;20041;-76
2022/10/19 04:21:17;;;;;;;;;;;12.80;99.90;;;;;;4859869;29;20128;-76
2022/10/19 04:23:43;;;;;;;14.50;6.40;;;12.80;99.90;;;;;;4859498;29;19923;-76
2022/10/19 04:26:08;;;;;;;;;;;12.70;99.90;;;;;;4859887;29;20436;-75
2022/10/19 04:28:34;;;;;;;14.82;6.22;;;12.80;99.90;;;;;;4859269;29;20011;-75
2022/10/19 04:31:04;;;;;;;;;;;12.80;99.90;;;;;;4843975;29;20030;-76
2022/10/19 04:33:30;;;;;;;18.77;7.15;;;12.80;99.90;;;;;;4842824;29;20339;-75
2022/10/19 04:36:00;;;;;;;12.52;6.13;;;12.70;99.90;;;;;;4842779;29;20041;-76
2022/10/19 04:38:27;;;;;;;11.65;5.95;;;12.80;99.90;;;;;;4842528;29;20033;-75
2022/10/19 04:40:53;;;;;;;14.27;5.85;;;12.80;99.90;;;;;;4842887;29;20037;-76
2022/10/19 04:43:19;;;;;;;;;;;12.80;99.90;;;;;;4858571;29;20062;-75
2022/10/19 04:45:44;;;;;;;12.20;6.10;;;12.70;99.90;;;;;;4842612;29;19908;-75
2022/10/19 04:48:10;;;;;;;;;;;12.70;99.90;;;;;;4843181;29;20076;-76
2022/10/19 04:50:35;;;;;;;10.48;6.60;;;12.70;99.90;;;;;;4842376;29;19923;-75
2022/10/19 04:53:01;;;;;;;;;;;12.60;99.90;;;;;;4859632;29;20093;-76
2022/10/19 04:55:26;;;;;;;12.48;7.25;;;12.60;99.90;;;;;;4859531;29;19919;-75
2022/10/19 04:57:52;;;;;;;;;;;12.50;99.90;;;;;;4859375;29;20022;-75
2022/10/19 05:00:18;;;;;;;9.18;6.28;;;12.50;99.90;;;;;;4859074;29;19912;-75
2022/10/19 05:02:44;;;;;;;;;;;12.30;99.90;;;;;;4844814;29;20430;-75
2022/10/19 05:05:10;;;;;;;18.70;8.13;;;12.30;99.90;;;;;;4862600;29;19912;-76
2022/10/19 05:07:35;;;;;;;19.15;8.30;;;12.20;99.90;;;;;;4861893;29;20030;-76
2022/10/19 05:10:01;;;;;;;;;;;12.10;99.90;;;;;;4863084;29;20044;-76
2022/10/19 05:12:27;;;;;;;17.35;7.60;;;12.00;99.90;;;;;;4845274;29;19916;-76
2022/10/19 05:14:52;;;;;;;;;;;11.90;99.90;;;;;;4846464;29;20487;-76
2022/10/19 05:17:18;;;;;;;17.48;9.02;;;11.80;99.90;;;;;;4863106;29;19918;-76
2022/10/19 05:19:43;;;;;;;;;;;11.70;99.90;;;;;;4846944;29;20072;-75
2022/10/19 05:22:09;;;;;;;18.42;10.40;;;11.70;99.90;;;;;;4861864;29;19959;-75
2022/10/19 05:24:34;;;;;;;;;;;11.60;99.90;;;;;;4862789;29;20093;-75
2022/10/19 05:27:00;;;;;;;28.95;14.88;;;11.60;99.90;;;;;;4845003;29;20392;-75
2022/10/19 05:29:27;;;;;;;;;;;11.50;99.90;;;;;;4844822;29;20040;-74
2022/10/19 05:31:52;;;;;;;36.87;17.80;;;11.50;99.90;;;;;;4844202;29;19915;-76
2022/10/19 05:34:18;;;;;;;;;;;11.60;99.90;;;;;;4861546;29;20144;-75
2022/10/19 05:36:43;;;;;;;25.45;13.93;;;11.60;99.90;;;;;;4861131;29;19916;-75
2022/10/19 05:39:13;;;;;;;;;;;11.60;99.90;;;;;;4844897;29;20854;-75
2022/10/19 05:41:41;;;;;;;32.78;15.23;;;11.70;99.90;;;;;;4861301;29;19908;-75
2022/10/19 05:44:10;;;;;;;19.80;10.88;;;11.80;99.90;;;;;;4861236;29;20404;-76
2022/10/19 05:46:35;;;;;;;14.73;9.82;;;11.80;99.90;;;;;;4861224;29;20061;-76
2022/10/19 05:49:01;;;;;;;;;;;11.90;99.90;;;;;;4844542;29;20084;-75
2022/10/19 05:51:28;;;;;;;16.00;9.43;;;11.90;99.90;;;;;;4830488;29;20373;-76
2022/10/19 05:53:54;;;;;;;18.80;11.13;;;11.90;99.90;;;;;;4860449;29;20037;-75
2022/10/19 05:56:26;;;;;;;15.77;10.13;;;11.90;99.90;;;;;;4844423;29;20389;-75
2022/10/19 05:58:53;;;;;;;18.77;9.05;;;12.00;99.90;;;;;;4844919;29;20396;-76
2022/10/19 06:01:19;;;;;;;16.05;9.38;;;12.10;99.90;;;;;;4844087;29;20030;-75
2022/10/19 06:03:45;;;;;;;;;;;12.10;99.90;;;;;;4861393;29;20045;-74
2022/10/19 06:06:11;;;;;;;31.83;9.87;;;12.10;99.90;;;;;;4861476;29;20342;-75
2022/10/19 06:08:37;;;;;;;;;;;12.20;99.90;;;;;;4844755;29;20140;-75
2022/10/19 06:11:11;;;;;;;22.45;13.93;;;12.20;99.90;;;;;;4844683;29;19971;-74
2022/10/19 06:13:38;;;;;;;95.53;78.47;;;12.30;99.90;;;;;;4861169;29;20045;-75
2022/10/19 06:16:05;;;;;;;31.17;22.15;;;12.40;99.90;;;;;;4860738;29;20038;-75
2022/10/19 06:18:32;;;;;;;20.92;10.35;;;12.30;99.90;;;;;;4843385;29;20033;-75
2022/10/19 06:21:02;;;;;;;19.65;10.10;;;12.30;99.90;;;;;;4860208;29;20050;-75
2022/10/19 06:23:28;;;;;;;19.33;9.15;;;12.30;99.90;;;;;;4860489;29;20044;-75
2022/10/19 06:25:54;;;;;;;;;;;12.20;99.90;;;;;;4860668;29;20090;-75
2022/10/19 06:28:19;;;;;;;22.23;11.98;;;12.20;99.90;;;;;;4859869;29;19979;-75
2022/10/19 06:30:45;;;;;;;;;;;12.10;99.90;;;;;;4843761;29;20510;-76
2022/10/19 06:33:11;;;;;;;24.30;10.98;;;12.10;99.90;;;;;;4859903;29;19912;-75
2022/10/19 06:35:37;;;;;;;;;;;12.10;99.90;;;;;;4861124;29;20082;-76
2022/10/19 06:38:03;;;;;;;14.85;9.13;;;12.20;99.90;;;;;;4859128;29;19919;-76
2022/10/19 06:40:28;;;;;;;;;;;12.80;99.90;;;;;;4860067;29;20029;-75
2022/10/19 06:42:55;;;;;;;75.78;12.43;;;13.60;99.90;;;;;;4860007;29;19975;-75
2022/10/19 06:45:20;;;;;;;53.65;11.45;;;14.40;99.90;;;;;;4859511;29;20067;-76
2022/10/19 06:47:46;;;;;;;;;;;15.10;99.90;;;;;;4843182;29;20044;-76
2022/10/19 06:50:11;;;;;;;17.73;8.50;;;15.50;99.90;;;;;;4858812;29;20412;-76
2022/10/19 06:52:39;;;;;;;;;;;16.10;99.90;;;;;;4858558;29;20116;-77
2022/10/19 06:55:05;;;;;;;19.30;9.95;;;16.50;99.90;;;;;;4858324;29;20393;-77
2022/10/19 06:57:31;;;;;;;26.50;9.05;;;16.80;99.90;;;;;;4858616;29;20037;-76
2022/10/19 06:59:57;;;;;;;22.45;8.68;;;16.90;99.90;;;;;;4842210;29;20034;-76
2022/10/19 07:02:22;;;;;;;15.07;8.65;;;16.90;99.90;;;;;;4842561;29;20121;-76
2022/10/19 07:04:48;;;;;;;18.10;8.80;;;16.80;99.90;;;;;;4859957;29;20029;-76
2022/10/19 07:07:13;;;;;;;18.17;8.45;;;16.60;99.90;;;;;;4842431;29;20044;-75
2022/10/19 07:09:39;;;;;;;16.85;7.65;;;16.50;99.90;;;;;;4858769;29;20029;-76
2022/10/19 07:12:05;;;;;;;16.70;6.30;;;16.30;99.90;;;;;;4859454;29;20041;-76
2022/10/19 07:14:37;;;;;;;7.95;5.43;;;16.20;99.90;;;;;;4842699;29;20089;-75
2022/10/19 07:17:03;;;;;;;9.68;4.90;;;16.00;99.90;;;;;;4859025;29;20079;-76
2022/10/19 07:19:29;;;;;;;11.98;5.43;;;16.00;99.90;;;;;;4858907;29;20060;-76
2022/10/19 07:21:55;;;;;;;9.95;4.35;;;16.10;99.90;;;;;;4858873;29;20468;-76
2022/10/19 07:24:21;;;;;;;12.00;4.80;;;16.40;99.90;;;;;;4841963;29;20117;-75
2022/10/19 07:26:47;;;;;;;10.38;4.68;;;16.80;99.90;;;;;;4858759;29;20064;-76
2022/10/19 07:29:12;;;;;;;8.98;4.70;;;17.10;99.90;;;;;;4858563;29;20073;-76
2022/10/19 07:31:38;;;;;;;12.43;4.75;;;17.40;99.90;;;;;;4859026;29;20051;-76
2022/10/19 07:34:04;;;;;;;9.82;4.75;;;17.50;99.90;;;;;;4841913;29;20042;-76
2022/10/19 07:36:32;;;;;;;14.05;3.70;;;17.70;99.90;;;;;;4841680;29;20030;-77
2022/10/19 07:39:00;;;;;;;7.80;4.22;;;18.00;99.90;;;;;;4857412;29;20041;-76
2022/10/19 07:41:26;;;;;;;8.65;3.80;;;18.40;99.90;;;;;;4841294;29;20025;-77
2022/10/19 07:43:52;;;;;;;12.88;3.83;;;18.60;99.90;;;;;;4857176;29;20049;-77
2022/10/19 07:46:27;;;;;;;6.78;3.50;;;18.80;99.90;;;;;;4857035;29;20026;-77
2022/10/19 07:48:53;;;;;;;9.13;3.45;;;18.90;99.20;;;;;;4856852;29;20049;-77
2022/10/19 07:51:20;;;;;;;5.78;3.28;;;18.90;99.20;;;;;;4856903;29;20070;-76
2022/10/19 07:53:46;;;;;;;6.95;3.17;;;18.80;99.20;;;;;;4840371;29;20086;-76
2022/10/19 07:56:20;;;;;;;8.57;3.55;;;18.80;99.50;;;;;;4840444;29;20034;-77
2022/10/19 07:58:48;;;;;;;8.43;3.50;;;18.80;99.40;;;;;;4857152;29;20817;-75
2022/10/19 08:01:16;;;;;;;5.75;3.17;;;18.70;99.60;;;;;;4842163;29;20033;-77
2022/10/19 08:03:42;;;;;;;13.98;3.72;;;18.50;99.80;;;;;;4857349;29;20116;-76
2022/10/19 08:06:11;;;;;;;9.13;3.65;;;18.40;99.90;;;;;;4857415;29;20086;-76
2022/10/19 08:08:37;;;;;;;13.52;3.88;;;18.30;99.90;;;;;;4841155;29;20069;-77
2022/10/19 08:11:13;;;;;;;10.38;4.35;;;18.20;99.90;;;;;;4857646;29;20029;-76
2022/10/19 08:13:39;;;;;;;7.47;4.55;;;18.10;99.90;;;;;;4840600;29;20090;-78
2022/10/19 08:16:17;;;;;;;8.70;4.28;;;18.30;99.90;;;;;;4839834;29;20037;-76
2022/10/19 08:18:43;;;;;;;10.10;3.55;;;18.80;99.80;;;;;;4839455;29;20033;-76
2022/10/19 08:21:08;;;;;;;10.00;3.70;;;19.10;98.80;;;;;;4839480;29;20480;-77
2022/10/19 08:23:34;;;;;;;18.02;3.65;;;19.20;98.60;;;;;;4839615;29;20054;-77
2022/10/19 08:26:00;;;;;;;12.50;4.38;;;19.30;98.60;;;;;;4856288;29;20140;-76
2022/10/19 08:28:25;;;;;;;8.25;3.60;;;19.30;98.10;;;;;;4856690;29;20053;-75
2022/10/19 08:30:56;;;;;;;8.82;3.60;;;19.20;98.20;;;;;;4840402;29;20033;-76
2022/10/19 08:33:22;;;;;;;12.13;4.00;;;19.10;98.40;;;;;;4856704;29;20074;-76
2022/10/19 08:35:48;;;;;;;6.47;3.92;;;19.10;98.40;;;;;;4856901;29;20449;-77
2022/10/19 08:38:13;;;;;;;12.27;5.45;;;19.10;98.60;;;;;;4842802;29;20064;-77
2022/10/19 08:40:39;;;;;;;9.52;3.95;;;19.00;98.60;;;;;;4860236;29;20037;-76
2022/10/19 08:43:31;;;;;;;8.73;3.67;;;18.90;98.60;;;;;;4860236;29;20520;-76
2022/10/19 08:46:00;;;;;;;10.43;4.15;;;18.80;98.90;;;;;;4857340;29;20037;-76
2022/10/19 08:48:35;;;;;;;6.75;3.70;;;18.90;99.40;;;;;;4859995;29;20506;-76
2022/10/19 08:51:02;;;;;;;7.63;3.83;;;19.50;99.20;;;;;;4859544;29;20555;-83
2022/10/19 08:53:36;;;;;;;8.85;4.40;;;20.70;97.80;;;;;;4842537;29;20273;-85
2022/10/19 08:56:05;;;;;;;9.80;3.67;;;21.90;94.50;;;;;;4842723;29;20034;-84
2022/10/19 08:58:50;;;;;;;10.38;3.30;;;22.40;92.80;;;;;;4842635;29;20064;-81
2022/10/19 09:01:27;;;;;;;10.27;3.90;;;23.20;90.80;;;;;;4842616;29;20094;-83
2022/10/19 09:04:03;;;;;;;9.32;4.00;;;23.10;86.10;;;;;;4859072;29;20045;-84
2022/10/19 09:06:59;;;;;;;14.80;4.85;;;23.10;85.60;;;;;;4842448;29;20124;-81
2022/10/19 09:09:26;;;;;;;9.35;3.80;;;23.50;83.00;;;;;;4842279;29;20040;-82
2022/10/19 09:11:57;;;;;;;11.07;3.80;;;23.40;82.90;;;;;;4842300;29;20033;-82
2022/10/19 09:14:46;;;;;;;7.90;3.58;;;23.20;83.10;;;;;;4858791;29;20029;-83
2022/10/19 09:17:14;;;;;;;10.02;4.93;;;23.60;82.30;;;;;;4842158;29;20042;-79
2022/10/19 09:19:40;;;;;;;9.80;4.85;;;24.50;79.70;;;;;;4857465;29;20033;-80
2022/10/19 09:22:23;;;;;;;7.07;3.70;;;25.10;76.50;;;;;;4841938;29;20041;-77
2022/10/19 09:25:09;;;;;;;9.57;3.20;;;25.60;72.30;;;;;;4858558;29;20038;-79
2022/10/19 09:27:39;;;;;;;5.90;3.53;;;25.80;70.90;;;;;;4858651;29;20819;-79
2022/10/19 09:30:26;;;;;;;7.78;3.85;;;26.10;69.60;;;;;;4858480;29;20029;-77
2022/10/19 09:32:59;;;;;;;8.95;3.60;;;26.10;67.30;;;;;;4858407;29;20445;-79
2022/10/19 09:35:33;;;;;;;11.88;4.20;;;26.10;66.40;;;;;;4858510;29;20042;-78
2022/10/19 09:37:59;;;;;;;7.47;4.10;;;26.00;67.20;;;;;;4858339;29;20025;-79
2022/10/19 09:40:27;;;;;;;7.90;3.83;;;26.10;66.50;;;;;;4858080;29;20036;-77
2022/10/19 09:42:57;;;;;;;11.65;3.30;;;26.20;65.20;;;;;;4841531;29;20515;-78
2022/10/19 09:45:41;;;;;;;7.25;2.92;;;26.20;64.90;;;;;;4841490;29;20049;-79
2022/10/19 09:48:50;;;;;;;6.80;2.85;;;26.50;62.60;;;;;;4840847;29;20071;-77
2022/10/19 09:51:17;;;;;;;10.27;3.28;;;26.30;61.80;;;;;;4841559;29;20526;-78
2022/10/19 09:53:54;;;;;;;6.85;3.30;;;25.60;63.50;;;;;;4856658;29;20136;-78
2022/10/19 09:56:22;;;;;;;8.57;2.63;;;25.00;64.10;;;;;;4854861;29;20054;-79
2022/10/19 09:58:56;;;;;;;10.35;2.92;;;24.40;66.40;;;;;;4841233;29;20060;-80
2022/10/19 10:02:09;;;;;;;5.18;3.22;;;23.80;68.90;;;;;;4841555;29;20060;-83
2022/10/19 10:04:35;;;;;;;4.95;2.88;;;23.20;69.30;;;;;;4837898;29;20056;-82
2022/10/19 10:07:02;;;;;;;9.98;3.17;;;22.80;71.50;;;;;;4856609;29;20029;-81
2022/10/19 10:09:29;;;;;;;9.68;3.20;;;22.50;73.60;;;;;;4841761;29;20034;-78
2022/10/19 10:11:58;;;;;;;7.47;3.45;;;22.20;74.50;;;;;;4858168;29;20675;-78
2022/10/19 10:14:38;;;;;;;6.40;3.53;;;22.00;76.10;;;;;;4857738;29;20065;-76
2022/10/19 10:17:12;;;;;;;5.03;3.50;;;21.90;77.90;;;;;;4841247;29;20037;-77
2022/10/19 10:20:03;;;;;;;6.63;3.90;;;21.80;79.60;;;;;;4841441;29;20029;-77
2022/10/19 10:22:35;;;;;;;7.93;3.88;;;21.80;80.90;;;;;;4841008;29;20492;-78
2022/10/19 10:25:10;;;;;;;8.68;4.20;;;21.50;81.00;;;;;;4841540;29;20144;-78
2022/10/19 10:27:38;;;;;;;6.47;3.72;;;21.30;81.90;;;;;;4857791;29;20064;-74
2022/10/19 10:30:14;;;;;;;12.00;4.50;;;21.10;84.80;;;;;;4858843;29;20038;-75
2022/10/19 10:32:52;;;;;;;10.88;4.38;;;21.00;86.60;;;;;;4840894;29;20102;-74
2022/10/19 10:35:31;;;;;;;11.05;4.28;;;21.00;88.50;;;;;;4840951;29;20518;-75
2022/10/19 10:38:07;;;;;;;7.50;4.25;;;21.00;89.70;;;;;;4857684;29;20029;-74
2022/10/19 10:40:33;;;;;;;7.75;4.10;;;21.00;90.30;;;;;;4857504;29;20040;-74
2022/10/19 10:43:12;;;;;;;7.03;3.95;;;21.10;90.80;;;;;;4840779;29;20037;-76
2022/10/19 10:45:44;;;;;;;7.55;3.58;;;21.20;90.70;;;;;;4857525;29;20033;-75
2022/10/19 10:48:29;;;;;;;7.07;2.75;;;21.20;91.00;;;;;;4857353;29;20065;-75
2022/10/19 10:50:56;;;;;;;4.65;2.78;;;21.20;91.50;;;;;;4857907;29;20033;-76
2022/10/19 10:53:37;;;;;;;6.18;3.17;;;21.30;91.80;;;;;;4857317;29;20029;-75
2022/10/19 10:56:05;;;;;;;6.95;2.80;;;21.50;92.00;;;;;;4840945;29;20384;-76
2022/10/19 10:58:55;;;;;;;3.10;2.15;;;21.50;91.70;;;;;;4857164;29;20037;-75
2022/10/19 11:01:22;;;;;;;5.68;2.17;;;21.60;91.30;;;;;;4840096;29;20014;-76
2022/10/19 11:04:11;;;;;;;4.93;2.42;;;21.60;91.30;;;;;;4840552;29;20052;-75
2022/10/19 11:06:50;;;;;;;3.70;2.13;;;21.60;91.00;;;;;;4857124;29;20030;-76
2022/10/19 11:09:33;;;;;;;3.72;1.85;;;21.40;90.20;;;;;;4840627;29;20681;-75
2022/10/19 11:12:03;;;;;;;3.90;1.70;;;21.20;90.40;;;;;;4842131;29;20045;-75
2022/10/19 11:14:31;;;;;;;3.95;2.33;;;21.20;90.70;;;;;;4858089;29;20069;-76
2022/10/19 11:17:03;;;;;;;6.40;2.30;;;21.20;91.10;;;;;;4857942;29;20036;-75
2022/10/19 11:19:41;;;;;;;4.88;2.20;;;21.20;91.50;;;;;;4858571;29;20500;-76
2022/10/19 11:22:15;;;;;;;3.97;2.88;;;21.10;91.70;;;;;;4858464;29;20048;-75
2022/10/19 11:24:50;;;;;;;4.22;2.55;;;20.80;92.20;;;;;;4841229;29;20049;-75
2022/10/19 11:27:16;;;;;;;5.65;2.08;;;20.50;93.00;;;;;;4858191;29;20025;-75
2022/10/19 11:30:00;;;;;;;4.97;1.60;;;20.40;93.20;;;;;;4857938;29;20038;-74
2022/10/19 11:32:35;;;;;;;2.10;1.35;;;20.40;92.60;;;;;;4841101;29;20033;-75
2022/10/19 11:35:03;;;;;;;2.88;1.33;;;20.50;92.90;;;;;;4858282;29;20484;-74
2022/10/19 11:38:13;;;;;;;2.25;1.55;;;20.50;92.30;;;;;;4841644;29;20121;-75
2022/10/19 11:41:00;;;;;;;6.78;1.48;;;20.40;92.10;;;;;;4828139;29;20041;-75
2022/10/19 11:43:32;;;;;;;;;;;20.30;92.10;;;;;;4842052;29;20047;-75
2022/10/19 11:46:18;;;;;;;3.53;1.38;;;20.30;91.30;;;;;;4858132;29;19968;-75
2022/10/19 11:48:59;;;;;;;3.17;0.70;;;20.30;90.90;;;;;;4857880;29;20072;-75
2022/10/19 11:51:25;;;;;;;1.05;0.52;;;20.30;90.80;;;;;;4858774;29;20033;-77
2022/10/19 11:54:18;;;;;;;0.82;0.40;;;20.50;90.30;;;;;;4841339;29;20086;-77
2022/10/19 11:56:49;;;;;;;1.02;0.50;;;20.70;87.00;;;;;;4856783;29;20038;-77
2022/10/19 11:59:29;;;;;;;2.65;0.52;;;20.70;86.40;;;;;;4840766;29;20949;-77
2022/10/19 12:02:13;;;;;;;3.03;0.75;;;20.80;86.30;;;;;;4840172;29;20102;-77
2022/10/19 12:04:51;;;;;;;1.13;0.50;;;20.80;86.20;;;;;;4857009;29;20045;-77
2022/10/19 12:07:25;;;;;;;5.18;0.50;;;20.90;86.30;;;;;;4856971;29;20026;-75
2022/10/19 12:10:24;;;;;;;1.25;0.50;;;20.90;85.40;;;;;;4857677;29;20057;-78
2022/10/19 12:12:57;;;;;;;2.67;0.60;;;20.90;84.60;;;;;;4844837;29;20106;-77
2022/10/19 12:15:31;;;;;;;2.47;0.60;;;20.90;84.00;;;;;;4844533;29;20041;-78
2022/10/19 12:18:09;;;;;;;1.27;0.60;;;20.90;84.00;;;;;;4844640;29;20022;-77
2022/10/19 12:20:41;;;;;;;1.30;0.60;;;21.00;83.90;;;;;;4844595;29;20119;-75
2022/10/19 12:23:16;;;;;;;2.40;0.80;;;21.10;82.60;;;;;;4862364;29;20463;-75
2022/10/19 12:25:43;;;;;;;1.85;0.68;;;21.20;81.60;;;;;;4863749;29;20580;-75
2022/10/19 12:28:23;;;;;;;1.58;0.70;;;21.20;80.90;;;;;;4863319;29;20105;-76
2022/10/19 12:30:50;;;;;;;2.60;0.75;;;21.20;80.10;;;;;;4861110;29;20168;-75
2022/10/19 12:33:22;;;;;;;1.98;0.52;;;21.10;79.60;;;;;;4844440;29;20160;-75
2022/10/19 12:36:17;;;;;;;1.92;0.65;;;21.00;79.90;;;;;;4861327;29;20084;-76
2022/10/19 12:38:59;;;;;;;1.45;0.50;;;20.90;80.60;;;;;;4860745;29;20025;-76
2022/10/19 12:41:51;;;;;;;3.47;0.73;;;20.90;78.90;;;;;;4843985;29;20404;-75
2022/10/19 12:44:34;;;;;;;3.72;0.73;;;21.00;76.90;;;;;;4844383;29;20043;-76
2022/10/19 12:47:09;;;;;;;3.10;0.50;;;21.00;76.40;;;;;;4860638;29;20498;-75
2022/10/19 12:49:42;;;;;;;1.42;0.80;;;20.90;76.10;;;;;;4843652;29;20476;-75
2022/10/19 12:52:08;;;;;;;2.00;0.57;;;21.00;73.60;;;;;;4843744;29;20036;-74
2022/10/19 12:54:38;;;;;;;1.38;0.60;;;21.00;74.20;;;;;;4859734;29;20033;-76
2022/10/19 12:57:37;;;;;;;0.80;0.50;;;20.90;74.40;;;;;;4860651;29;20033;-73
2022/10/19 13:00:22;;;;;;;2.35;0.63;;;20.90;74.30;;;;;;4843718;29;20210;-75
2022/10/19 13:03:27;;;;;;;2.50;0.70;;;20.90;74.50;;;;;;4843939;29;20507;-76
2022/10/19 13:06:03;;;;;;;2.45;0.60;;;20.80;75.10;;;;;;4822952;29;20061;-76
2022/10/19 13:08:42;;;;;;;2.85;0.70;;;20.80;74.70;;;;;;4843045;29;20128;-74
2022/10/19 13:11:13;;;;;;;0.90;0.60;;;20.80;73.90;;;;;;4839229;29;20415;-75
2022/10/19 13:14:20;;;;;;;4.88;0.65;;;20.80;73.60;;;;;;4860402;29;20026;-76
2022/10/19 13:16:57;;;;;;;4.15;0.60;;;20.70;73.00;;;;;;4841838;29;20050;-74
2022/10/19 13:19:24;;;;;;;3.25;0.70;;;20.70;72.50;;;;;;4859332;29;20460;-74